Caetes, Brazil
Current Conditions -  °F | °C
As of 6:00 AM on Thursday 27 Nov 2014 (Local Time) from SBMO Reporting Station
Clear Clear  
Wind Chill: 73°   Ceiling: Unl
Heat Index: 73°   Visibility: 6mi
Dew Point: 73°   Wind: 3mph
Humidity: 100%   Direction: 300°WNW
Pressure: 29.94"   Gusts: NA
Location:  8.77°S, 36.62°W
Report Text: SBMO 270900Z 30003KT CAVOK 23/23 Q1014
Loading
Personal Weather Stations






























Interactive Weather Map New forecast layout! Learn more

10-Day Weather Forecast

Advertisements
Track Severe Weather on mobile